Time;durP1;ratioP1;P1;durP2;ratioP2;P2;SDS_P1;SDS_P2;PMS_P1;PMS_P2;Temp;Humidity;BMP_temperature;BMP_pressure;BME280_temperature;BME280_humidity;BME280_pressure;Samples;Min_cycle;Max_cycle;Signal;HPM_P1;HPM_P2
2022/05/27 00:01:55;;;;;;;5.80;4.17;;;12.20;99.90;;;;;;5118848;28;20554;-84
2022/05/27 00:04:21;;;;;;;4.80;3.70;;;;;;;;;;5118400;28;20183;-83
2022/05/27 00:06:47;;;;;;;4.30;3.47;;;;;;;;;;5118724;28;20199;-83
2022/05/27 00:09:13;;;;;;;3.73;3.17;;;12.10;99.90;;;;;;5118020;28;20179;-83
2022/05/27 00:11:39;;;;;;;6.10;4.77;;;;;;;;;;5118427;28;20229;-84
2022/05/27 00:14:05;;;;;;;8.07;5.40;;;;;;;;;;5123771;28;20202;-83
2022/05/27 00:16:31;;;;;;;10.03;4.80;;;;;;;;;;5128842;28;20191;-83
2022/05/27 00:18:58;;;;;;;11.87;7.47;;;;;;;;;;5128324;28;20179;-83
2022/05/27 00:21:24;;;;;;;13.33;8.73;;;;;;;;;;5119808;28;20193;-83
2022/05/27 00:23:50;;;;;;;7.00;5.13;;;11.80;99.90;;;;;;5119219;28;20187;-83
2022/05/27 00:26:16;;;;;;;10.83;5.57;;;;;;;;;;5118700;28;20205;-83
2022/05/27 00:28:42;;;;;;;4.70;3.57;;;;;;;;;;5119683;28;20179;-83
2022/05/27 00:31:08;;;;;;;5.00;3.60;;;;;;;;;;5120327;28;20203;-83
2022/05/27 00:33:37;;;;;;;4.10;3.67;;;11.90;99.90;;;;;;5120146;28;20182;-83
2022/05/27 00:36:08;;;;;;;10.83;3.63;;;11.80;99.90;;;;;;5121028;28;20183;-83
2022/05/27 00:38:34;;;;;;;4.40;3.40;;;;;;;;;;5120412;28;20605;-83
2022/05/27 00:41:00;;;;;;;3.20;2.80;;;11.70;99.90;;;;;;5123489;28;20760;-83
2022/05/27 00:43:26;;;;;;;2.70;2.30;;;;;;;;;;5123943;28;20187;-83
2022/05/27 00:46:05;;;;;;;9.73;6.00;;;11.70;99.90;;;;;;5124081;28;20207;-83
2022/05/27 00:48:33;;;;;;;3.97;2.97;;;11.70;99.90;;;;;;5123930;28;20167;-83
2022/05/27 00:50:59;;;;;;;3.43;2.80;;;11.60;99.90;;;;;;5124628;28;20203;-83
2022/05/27 00:53:41;;;;;;;3.77;2.60;;;11.60;99.90;;;;;;5123397;28;20182;-83
2022/05/27 00:56:09;;;;;;;3.53;3.20;;;11.60;99.90;;;;;;5123040;28;20195;-83
2022/05/27 00:58:46;;;;;;;6.27;3.50;;;11.60;99.90;;;;;;5123637;28;20229;-83
2022/05/27 01:01:13;;;;;;;6.27;3.20;;;11.60;99.90;;;;;;5122166;28;20179;-83
2022/05/27 01:03:40;;;;;;;3.30;2.67;;;;;;;;;;5125762;28;20552;-83
2022/05/27 01:06:06;;;;;;;3.10;2.80;;;;;;;;;;5122867;28;20200;-83
2022/05/27 01:08:33;;;;;;;4.23;2.90;;;;;;;;;;5125103;28;20206;-83
2022/05/27 01:11:31;;;;;;;2.77;2.37;;;11.50;99.90;;;;;;5122991;28;20206;-83
2022/05/27 01:13:57;;;;;;;4.13;2.47;;;;;;;;;;5089518;28;20242;-83
2022/05/27 01:16:23;;;;;;;2.53;2.33;;;;;;;;;;5123138;28;20195;-83
2022/05/27 01:21:48;;;;;;;5.40;2.47;;;11.40;99.90;;;;;;5122984;28;20223;-83
2022/05/27 01:24:50;;;;;;;2.80;2.50;;;11.40;99.90;;;;;;5121721;28;20211;-83
2022/05/27 01:27:39;;;;;;;2.70;2.20;;;11.30;99.90;;;;;;5121408;28;20207;-83
2022/05/27 01:30:24;;;;;;;5.03;2.60;;;11.40;99.90;;;;;;5129007;28;20192;-83
2022/05/27 01:32:52;;;;;;;2.63;2.43;;;11.30;99.90;;;;;;5132314;28;20175;-82
2022/05/27 01:35:53;;;;;;;4.47;2.63;;;11.20;99.90;;;;;;5123830;28;20175;-83
2022/05/27 01:38:25;;;;;;;3.87;2.63;;;11.30;99.90;;;;;;5122538;28;20521;-83
2022/05/27 01:41:09;;;;;;;3.70;2.60;;;11.40;99.90;;;;;;5121004;28;20185;-82
2022/05/27 01:43:50;;;;;;;3.37;2.70;;;11.20;99.90;;;;;;5121119;28;20194;-83
2022/05/27 01:46:33;;;;;;;4.80;2.47;;;11.20;99.90;;;;;;5121606;28;20553;-82
2022/05/27 01:49:18;;;;;;;2.93;2.47;;;11.20;99.90;;;;;;5121113;28;20171;-83
2022/05/27 01:51:51;;;;;;;2.70;2.50;;;11.10;99.90;;;;;;5120376;28;20194;-82
2022/05/27 01:54:40;;;;;;;3.30;2.10;;;11.10;99.90;;;;;;5120927;28;20164;-82
2022/05/27 01:57:20;;;;;;;2.93;2.63;;;11.10;99.90;;;;;;5122752;27;20553;-83
2022/05/27 02:00:00;;;;;;;2.83;2.50;;;11.10;99.90;;;;;;5121155;28;20171;-82
2022/05/27 02:02:29;;;;;;;3.03;2.40;;;11.10;99.90;;;;;;5122614;28;20160;-82
2022/05/27 02:05:05;;;;;;;2.70;2.50;;;11.00;99.90;;;;;;5121503;28;20171;-82
2022/05/27 02:07:36;;;;;;;2.87;2.43;;;11.10;99.90;;;;;;5122656;28;20634;-82
2022/05/27 02:10:10;;;;;;;6.17;3.00;;;11.10;99.90;;;;;;5120735;28;20216;-82
2022/05/27 02:12:47;;;;;;;3.10;2.47;;;11.10;99.90;;;;;;5120730;28;20179;-82
2022/05/27 02:15:28;;;;;;;2.93;2.63;;;11.00;99.90;;;;;;5120798;28;20281;-82
2022/05/27 02:18:02;;;;;;;3.40;2.60;;;11.00;99.90;;;;;;5123496;28;20190;-82
2022/05/27 02:20:35;;;;;;;3.10;2.40;;;11.00;99.90;;;;;;5121970;28;20217;-82
2022/05/27 02:23:20;;;;;;;3.67;2.50;;;11.00;99.90;;;;;;5122297;28;20182;-83
2022/05/27 02:25:48;;;;;;;3.73;2.50;;;11.00;99.90;;;;;;5120817;28;20209;-83
2022/05/27 02:28:26;;;;;;;2.73;2.50;;;11.00;99.90;;;;;;5121018;28;20575;-82
2022/05/27 02:30:59;;;;;;;3.00;2.43;;;11.00;99.90;;;;;;5120262;28;20748;-83
2022/05/27 02:36:24;;;;;;;3.07;2.77;;;10.90;99.90;;;;;;5121142;28;20206;-83
2022/05/27 02:38:50;;;;;;;2.43;2.23;;;11.00;99.90;;;;;;5120219;28;20172;-83
2022/05/27 02:41:23;;;;;;;3.03;2.47;;;11.00;99.90;;;;;;5120920;28;20232;-83
2022/05/27 02:44:05;;;;;;;5.73;2.50;;;10.90;99.90;;;;;;5119825;28;20198;-83
2022/05/27 02:46:38;;;;;;;2.43;2.23;;;;;;;;;;5121470;28;20191;-83
2022/05/27 02:49:09;;;;;;;3.50;2.20;;;11.00;99.90;;;;;;5121353;28;20175;-83
2022/05/27 02:52:03;;;;;;;4.10;2.60;;;11.00;99.90;;;;;;5120161;28;20672;-83
2022/05/27 02:54:43;;;;;;;3.03;2.63;;;11.10;99.90;;;;;;5128130;28;20199;-82
2022/05/27 02:57:40;;;;;;;2.67;2.30;;;11.10;99.90;;;;;;5131570;28;20202;-82
2022/05/27 03:00:11;;;;;;;2.93;2.17;;;11.10;99.90;;;;;;5127131;28;20180;-82
2022/05/27 03:02:37;;;;;;;5.07;2.00;;;11.20;99.90;;;;;;5120790;28;20207;-83
2022/05/27 03:05:04;;;;;;;4.90;2.53;;;11.30;99.90;;;;;;5119759;28;20179;-83
2022/05/27 03:07:39;;;;;;;2.30;2.10;;;11.30;99.90;;;;;;5121516;28;20198;-82
2022/05/27 03:10:48;;;;;;;3.43;2.60;;;11.30;99.90;;;;;;5119802;28;20297;-83
2022/05/27 03:13:38;;;;;;;2.37;2.17;;;11.30;99.90;;;;;;5071175;28;20179;-83
2022/05/27 03:16:37;;;;;;;2.63;2.10;;;11.30;99.90;;;;;;5119715;28;20278;-83
2022/05/27 03:19:43;;;;;;;2.47;2.27;;;11.30;99.90;;;;;;5120429;28;20167;-83
2022/05/27 03:22:17;;;;;;;4.23;1.90;;;11.30;99.90;;;;;;5120345;28;20182;-82
2022/05/27 03:25:19;;;;;;;3.00;2.13;;;11.30;99.90;;;;;;5120833;28;20171;-83
2022/05/27 03:28:10;;;;;;;3.50;2.10;;;11.40;99.90;;;;;;5120933;28;20191;-83
2022/05/27 03:30:49;;;;;;;2.30;2.10;;;11.40;99.90;;;;;;5119988;28;20195;-83
2022/05/27 03:33:38;;;;;;;2.50;2.27;;;11.40;99.90;;;;;;5120167;28;20180;-83
2022/05/27 03:36:19;;;;;;;3.83;1.80;;;11.50;99.90;;;;;;5120126;28;20211;-83
2022/05/27 03:38:58;;;;;;;2.27;2.07;;;11.50;99.90;;;;;;5120847;28;20171;-83
2022/05/27 03:41:26;;;;;;;3.80;2.33;;;11.50;99.90;;;;;;5118942;28;20220;-83
2022/05/27 03:43:53;;;;;;;5.53;2.30;;;11.50;99.90;;;;;;5119933;28;20664;-83
2022/05/27 03:46:49;;;;;;;2.20;2.00;;;11.60;99.90;;;;;;5118676;28;20202;-83
2022/05/27 03:49:15;;;;;;;2.70;2.10;;;11.60;99.90;;;;;;5110347;28;20731;-82
2022/05/27 03:52:03;;;;;;;3.60;1.80;;;11.60;99.90;;;;;;5119402;28;20283;-82
2022/05/27 03:54:29;;;;;;;3.43;2.37;;;11.70;99.90;;;;;;5118201;28;20617;-83
2022/05/27 03:56:55;;;;;;;2.77;2.27;;;11.70;99.90;;;;;;5119608;28;20606;-83
2022/05/27 03:59:22;;;;;;;3.70;2.10;;;;;;;;;;5118377;28;20176;-83
2022/05/27 04:01:51;;;;;;;2.83;1.87;;;11.70;99.90;;;;;;5118652;28;20255;-83
2022/05/27 04:04:23;;;;;;;2.13;1.90;;;11.70;99.90;;;;;;5118334;28;20179;-83
2022/05/27 04:06:49;;;;;;;2.67;1.90;;;11.70;99.90;;;;;;5117664;28;20195;-83
2022/05/27 04:09:17;;;;;;;2.10;1.90;;;11.80;99.90;;;;;;5117931;28;20215;-82
2022/05/27 04:11:43;;;;;;;3.90;1.83;;;11.70;99.90;;;;;;5118297;28;20202;-83
2022/05/27 04:14:10;;;;;;;6.50;2.13;;;11.70;99.90;;;;;;5118509;28;20551;-83
2022/05/27 04:16:35;;;;;;;1.67;1.57;;;11.70;99.90;;;;;;5117839;28;20198;-83
2022/05/27 04:19:01;;;;;;;2.40;2.20;;;;;;;;;;5118287;28;20235;-83
2022/05/27 04:21:27;;;;;;;4.03;2.00;;;11.80;99.90;;;;;;5119045;28;20565;-83
2022/05/27 04:23:54;;;;;;;1.87;1.70;;;;;;;;;;5117791;28;20262;-83
2022/05/27 04:26:20;;;;;;;2.93;1.80;;;11.90;99.90;;;;;;5118119;28;20234;-83
2022/05/27 04:28:46;;;;;;;2.00;1.77;;;11.90;99.90;;;;;;5119084;28;20203;-83
2022/05/27 04:31:12;;;;;;;2.00;1.83;;;12.00;99.90;;;;;;5118811;28;20661;-83
2022/05/27 04:33:38;;;;;;;2.03;1.90;;;;;;;;;;5118959;28;20175;-83
2022/05/27 04:36:04;;;;;;;4.57;2.50;;;12.10;99.90;;;;;;5117928;28;20202;-83
2022/05/27 04:38:30;;;;;;;2.90;2.10;;;12.10;99.90;;;;;;5117311;28;20278;-83
2022/05/27 04:40:57;;;;;;;2.10;1.87;;;;;;;;;;5119158;28;20315;-83
2022/05/27 04:43:22;;;;;;;2.47;2.00;;;12.20;99.90;;;;;;5117919;28;20186;-83
2022/05/27 04:45:48;;;;;;;4.03;2.00;;;;;;;;;;5117648;28;20203;-83
2022/05/27 04:48:16;;;;;;;4.70;2.10;;;12.20;99.90;;;;;;5117535;28;20667;-83
2022/05/27 04:50:42;;;;;;;2.37;2.00;;;12.10;99.90;;;;;;5118767;28;20626;-83
2022/05/27 04:53:09;;;;;;;2.70;1.90;;;;;;;;;;5121514;28;20172;-84
2022/05/27 04:55:36;;;;;;;2.37;1.53;;;12.30;99.90;;;;;;5118141;28;20195;-83
2022/05/27 04:58:01;;;;;;;2.23;2.03;;;12.30;99.90;;;;;;5122919;28;20264;-83
2022/05/27 05:00:30;;;;;;;2.00;1.77;;;12.40;99.90;;;;;;5123612;28;20183;-83
2022/05/27 05:02:57;;;;;;;1.60;1.40;;;12.50;99.90;;;;;;5125111;28;20264;-82
2022/05/27 05:05:25;;;;;;;2.23;1.70;;;12.70;99.90;;;;;;5117606;28;20299;-82
2022/05/27 05:07:59;;;;;;;2.10;1.90;;;12.80;99.90;;;;;;5118296;28;20175;-83
2022/05/27 05:10:26;;;;;;;2.70;1.87;;;12.80;99.90;;;;;;5116069;28;20293;-83
2022/05/27 05:12:52;;;;;;;6.27;1.80;;;12.90;99.90;;;;;;5118518;28;20176;-83
2022/05/27 05:15:20;;;;;;;2.60;1.90;;;13.10;99.90;;;;;;5117053;28;20274;-82
2022/05/27 05:17:46;;;;;;;3.87;1.73;;;13.10;99.90;;;;;;5116974;28;20184;-82
2022/05/27 05:20:15;;;;;;;2.40;2.07;;;13.10;99.90;;;;;;5116507;28;20210;-82
2022/05/27 05:22:41;;;;;;;4.70;2.27;;;13.20;99.90;;;;;;5117004;28;20180;-83
2022/05/27 05:25:08;;;;;;;2.90;1.80;;;13.30;99.90;;;;;;5116806;28;20179;-83
2022/05/27 05:27:34;;;;;;;3.30;1.93;;;13.30;99.90;;;;;;5121230;28;20602;-82
2022/05/27 05:30:01;;;;;;;2.07;1.60;;;13.30;99.90;;;;;;5119651;28;20217;-83
2022/05/27 05:32:27;;;;;;;2.47;1.70;;;13.30;99.90;;;;;;5120245;28;20550;-83
2022/05/27 05:34:58;;;;;;;3.17;1.50;;;13.40;99.90;;;;;;5119326;28;20266;-83
2022/05/27 05:37:24;;;;;;;3.27;1.90;;;13.40;99.90;;;;;;5120520;28;20191;-83
2022/05/27 05:39:50;;;;;;;4.90;1.60;;;13.40;99.90;;;;;;5119466;28;20179;-83
2022/05/27 05:42:15;;;;;;;2.93;1.90;;;13.40;99.90;;;;;;5118344;28;20572;-83
2022/05/27 05:44:41;;;;;;;1.90;1.40;;;;;;;;;;5119534;28;20528;-83
2022/05/27 05:47:07;;;;;;;2.17;1.40;;;13.50;99.90;;;;;;5117544;28;20714;-83
2022/05/27 05:49:33;;;;;;;2.33;1.43;;;13.50;99.90;;;;;;5118215;28;20172;-83
2022/05/27 05:52:00;;;;;;;3.83;1.53;;;13.60;99.90;;;;;;5118673;28;20175;-83
2022/05/27 05:54:27;;;;;;;6.47;1.60;;;13.60;99.90;;;;;;5121479;28;20189;-83
2022/05/27 05:56:53;;;;;;;2.93;1.63;;;13.70;99.90;;;;;;5120346;28;20226;-84
2022/05/27 05:59:21;;;;;;;2.23;1.37;;;13.90;99.90;;;;;;5120914;28;20176;-84
2022/05/27 06:01:46;;;;;;;2.30;1.23;;;13.80;99.90;;;;;;5122235;28;20504;-83
2022/05/27 06:04:13;;;;;;;3.47;1.33;;;13.90;99.90;;;;;;5120723;28;20182;-83
2022/05/27 06:06:39;;;;;;;3.77;1.60;;;14.10;99.90;;;;;;5120435;28;20202;-83
2022/05/27 06:09:07;;;;;;;2.20;1.40;;;14.20;99.90;;;;;;5120819;28;20180;-83
2022/05/27 06:11:36;;;;;;;2.27;1.20;;;14.20;99.90;;;;;;5120370;28;20228;-84
2022/05/27 06:14:02;;;;;;;3.23;1.37;;;14.30;99.90;;;;;;5120737;28;20653;-83
2022/05/27 06:16:28;;;;;;;2.43;1.20;;;14.40;99.90;;;;;;5119355;28;20202;-83
2022/05/27 06:18:54;;;;;;;1.80;1.40;;;;;;;;;;5121240;28;20192;-83
2022/05/27 06:21:20;;;;;;;3.13;1.20;;;;;;;;;;5120209;28;20740;-83
2022/05/27 06:23:46;;;;;;;2.80;1.30;;;14.50;99.90;;;;;;5120358;28;20279;-83
2022/05/27 06:26:12;;;;;;;5.77;1.20;;;14.60;99.90;;;;;;5120837;28;20230;-83
2022/05/27 06:34:26;;;;;;;1.93;1.10;;;14.90;99.90;;;;;;5122449;28;20533;-84
2022/05/27 06:37:14;;;;;;;3.70;1.60;;;15.00;99.90;;;;;;5120398;28;20271;-84
2022/05/27 06:39:41;;;;;;;1.80;1.40;;;15.00;99.90;;;;;;5119545;28;20176;-83
2022/05/27 06:42:09;;;;;;;3.27;1.30;;;15.10;99.90;;;;;;5121271;28;20517;-83
2022/05/27 06:44:36;;;;;;;2.87;1.30;;;15.20;99.90;;;;;;5121021;28;20223;-84
2022/05/27 06:47:02;;;;;;;1.47;1.03;;;15.20;99.90;;;;;;5120167;28;20540;-84
2022/05/27 06:49:28;;;;;;;2.40;1.37;;;15.20;99.90;;;;;;5120642;28;20179;-84
2022/05/27 06:51:53;;;;;;;4.47;1.47;;;15.20;99.90;;;;;;5121217;28;20575;-83
2022/05/27 06:54:20;;;;;;;3.03;1.30;;;15.20;99.90;;;;;;5122180;28;20183;-84
2022/05/27 06:56:49;;;;;;;2.33;1.20;;;15.40;99.90;;;;;;5126216;28;20188;-83
2022/05/27 06:59:16;;;;;;;2.50;0.97;;;15.50;99.90;;;;;;5126852;28;20616;-83
2022/05/27 07:01:42;;;;;;;3.83;1.10;;;15.60;99.90;;;;;;5125401;28;20188;-84
2022/05/27 07:04:08;;;;;;;5.07;1.30;;;15.70;99.90;;;;;;5119388;28;20634;-83
2022/05/27 07:06:43;;;;;;;2.63;0.97;;;15.90;99.90;;;;;;5119576;28;20191;-84
2022/05/27 07:09:10;;;;;;;3.43;1.13;;;15.90;99.90;;;;;;5120921;28;20202;-83
2022/05/27 07:11:37;;;;;;;1.80;0.97;;;16.00;99.90;;;;;;5118245;28;20231;-83
2022/05/27 07:14:03;;;;;;;2.63;1.30;;;16.10;99.90;;;;;;5118586;28;20192;-83
2022/05/27 07:16:28;;;;;;;2.93;0.83;;;16.20;99.90;;;;;;5118690;28;20668;-83
2022/05/27 07:18:55;;;;;;;1.50;1.10;;;16.20;99.90;;;;;;5118580;28;20179;-85
2022/05/27 07:21:21;;;;;;;1.53;1.30;;;16.20;99.90;;;;;;5119332;28;20183;-83
2022/05/27 07:23:47;;;;;;;2.80;1.30;;;16.20;99.90;;;;;;5118133;28;20184;-83
2022/05/27 07:26:13;;;;;;;1.53;1.20;;;16.30;99.90;;;;;;5118785;28;20288;-84
2022/05/27 07:28:38;;;;;;;3.20;1.20;;;16.30;99.90;;;;;;5118145;28;20239;-83
2022/05/27 07:31:04;;;;;;;2.93;1.20;;;16.40;99.90;;;;;;5118304;28;20211;-84
2022/05/27 07:33:30;;;;;;;1.67;1.20;;;16.50;99.90;;;;;;5119083;28;20247;-83
2022/05/27 07:35:56;;;;;;;2.80;1.00;;;;;;;;;;5119045;28;20683;-83
2022/05/27 07:38:22;;;;;;;1.23;1.00;;;16.70;99.90;;;;;;5118614;28;20176;-83
2022/05/27 07:40:48;;;;;;;2.20;1.20;;;16.80;99.90;;;;;;5118043;28;20210;-83
2022/05/27 07:43:15;;;;;;;3.53;1.10;;;16.80;99.90;;;;;;5117530;28;20207;-84
2022/05/27 07:45:42;;;;;;;1.40;1.10;;;16.80;99.90;;;;;;5119339;28;20203;-83
2022/05/27 07:48:09;;;;;;;1.40;1.03;;;16.80;99.90;;;;;;5116548;28;20175;-83
2022/05/27 07:50:36;;;;;;;3.37;1.30;;;16.90;99.90;;;;;;5118641;28;20199;-83
2022/05/27 07:53:03;;;;;;;4.50;1.50;;;16.90;99.90;;;;;;5117966;28;20270;-83
2022/05/27 07:55:29;;;;;;;4.47;1.33;;;17.10;99.90;;;;;;5118819;28;20185;-83
2022/05/27 07:57:55;;;;;;;1.40;1.03;;;17.10;99.90;;;;;;5118713;28;20177;-84
2022/05/27 08:00:24;;;;;;;2.57;1.17;;;17.10;99.90;;;;;;5119963;28;20582;-85
2022/05/27 08:02:50;;;;;;;2.13;1.17;;;17.00;99.90;;;;;;5120310;28;20177;-83
2022/05/27 08:05:20;;;;;;;1.90;1.20;;;17.00;99.90;;;;;;5119904;28;20176;-83
2022/05/27 08:07:46;;;;;;;1.93;1.33;;;17.00;99.90;;;;;;5117462;28;20207;-84
2022/05/27 08:10:15;;;;;;;3.17;1.23;;;17.10;99.90;;;;;;5117888;28;20207;-83
2022/05/27 08:12:41;;;;;;;1.80;0.97;;;17.20;99.90;;;;;;5118401;28;20312;-83
2022/05/27 08:15:08;;;;;;;3.53;1.50;;;17.20;99.90;;;;;;5117439;28;20219;-84
2022/05/27 08:17:35;;;;;;;2.50;1.20;;;17.20;99.90;;;;;;5117968;28;20265;-84
2022/05/27 08:20:00;;;;;;;2.90;1.30;;;17.30;99.90;;;;;;5118666;28;20175;-83
2022/05/27 08:22:26;;;;;;;3.80;1.33;;;17.50;99.90;;;;;;5118838;28;20735;-83
2022/05/27 08:24:52;;;;;;;1.60;1.20;;;17.60;99.90;;;;;;5117271;28;20231;-82
2022/05/27 08:27:18;;;;;;;2.00;1.20;;;17.70;99.90;;;;;;5116913;28;20296;-84
2022/05/27 08:29:44;;;;;;;1.77;0.90;;;17.90;99.90;;;;;;5118964;28;20284;-83
2022/05/27 08:32:10;;;;;;;1.73;1.10;;;18.00;99.90;;;;;;5118306;28;20701;-84
2022/05/27 08:40:13;;;;;;;5.70;2.17;;;18.20;99.90;;;;;;5119618;28;20186;-84
2022/05/27 08:42:47;;;;;;;1.97;1.30;;;18.20;99.90;;;;;;5119748;28;20160;-83
2022/05/27 08:45:47;;;;;;;2.50;1.30;;;18.30;99.90;;;;;;5117786;28;20178;-84
2022/05/27 08:48:14;;;;;;;3.03;1.20;;;18.30;99.90;;;;;;5106434;28;20194;-83
2022/05/27 08:50:45;;;;;;;1.37;1.07;;;18.50;99.90;;;;;;5116594;28;20287;-84
2022/05/27 08:53:20;;;;;;;2.40;1.43;;;18.70;99.90;;;;;;5114614;28;20179;-84
2022/05/27 09:01:22;;;;;;;2.40;1.30;;;19.10;99.90;;;;;;5123618;28;20221;-84
2022/05/27 09:03:58;;;;;;;1.63;1.40;;;19.20;99.90;;;;;;5122341;28;20168;-83
2022/05/27 09:06:44;;;;;;;3.60;1.40;;;19.30;99.90;;;;;;5121431;28;20589;-84
2022/05/27 09:09:28;;;;;;;2.20;1.10;;;19.40;99.90;;;;;;5119634;28;20184;-84
2022/05/27 09:12:10;;;;;;;2.60;1.50;;;19.60;99.90;;;;;;5122602;28;20182;-83
2022/05/27 09:14:43;;;;;;;4.37;1.40;;;19.50;99.90;;;;;;5120859;28;20679;-84
2022/05/27 09:17:15;;;;;;;1.47;1.27;;;19.70;99.90;;;;;;5120759;28;20191;-83
2022/05/27 09:20:06;;;;;;;3.70;1.30;;;19.90;99.90;;;;;;5123491;28;20167;-84
2022/05/27 09:23:05;;;;;;;1.73;1.00;;;20.20;99.90;;;;;;5120974;28;20175;-82
2022/05/27 09:26:22;;;;;;;1.50;1.10;;;20.30;99.90;;;;;;5122469;28;20222;-83
2022/05/27 09:28:54;;;;;;;3.40;1.10;;;20.50;99.90;;;;;;5106099;28;20217;-83
2022/05/27 09:31:49;;;;;;;1.67;1.00;;;20.30;99.90;;;;;;5122934;28;20199;-83
2022/05/27 09:34:15;;;;;;;5.90;1.50;;;20.30;99.90;;;;;;5121020;28;20291;-83
2022/05/27 09:36:46;;;;;;;4.00;1.20;;;20.50;99.90;;;;;;5123862;28;20188;-84
2022/05/27 09:39:18;;;;;;;2.33;1.03;;;20.70;99.90;;;;;;5126567;28;20195;-83
2022/05/27 09:42:05;;;;;;;1.47;0.93;;;20.90;99.90;;;;;;5124959;28;20180;-83
2022/05/27 09:44:44;;;;;;;2.93;1.27;;;21.20;99.90;;;;;;5120902;28;20585;-83
2022/05/27 09:47:09;;;;;;;1.40;1.20;;;21.10;99.90;;;;;;5122639;28;20202;-83
2022/05/27 09:49:35;;;;;;;2.13;1.20;;;21.10;99.90;;;;;;5124371;28;20175;-83
2022/05/27 09:52:01;;;;;;;1.90;1.07;;;21.20;99.90;;;;;;5121827;28;20178;-84
2022/05/27 09:54:44;;;;;;;5.13;1.10;;;21.40;99.90;;;;;;5122441;28;20172;-84
2022/05/27 09:57:10;;;;;;;5.40;1.10;;;21.40;99.90;;;;;;5123310;28;20188;-82
2022/05/27 09:59:54;;;;;;;2.23;1.00;;;21.70;99.90;;;;;;5120388;28;20590;-83
2022/05/27 10:02:27;;;;;;;1.57;1.17;;;22.00;99.90;;;;;;5122035;28;20240;-83
2022/05/27 10:04:58;;;;;;;4.47;1.30;;;22.40;99.90;;;;;;5120402;28;20172;-83
2022/05/27 10:07:34;;;;;;;1.30;1.00;;;23.00;99.90;;;;;;5121744;28;20246;-83
2022/05/27 10:10:26;;;;;;;1.60;0.90;;;22.70;99.90;;;;;;5125213;28;20548;-83
2022/05/27 10:12:52;;;;;;;1.20;0.93;;;22.00;99.90;;;;;;5123789;28;20174;-83
2022/05/27 10:15:27;;;;;;;2.20;0.90;;;22.00;99.90;;;;;;5125092;28;20191;-83
2022/05/27 10:17:52;;;;;;;1.57;0.83;;;22.30;99.90;;;;;;5125501;28;20175;-83
2022/05/27 10:20:30;;;;;;;1.20;0.70;;;22.00;99.90;;;;;;5125472;28;20352;-84
2022/05/27 10:23:02;;;;;;;1.10;0.80;;;21.70;99.90;;;;;;5122271;28;20172;-84
2022/05/27 10:25:37;;;;;;;4.60;1.30;;;21.60;99.90;;;;;;5125714;28;20252;-84
2022/05/27 10:28:05;;;;;;;1.33;1.00;;;21.90;99.90;;;;;;5125373;28;20235;-84
2022/05/27 10:30:34;;;;;;;2.47;0.90;;;22.20;99.90;;;;;;5124354;28;20257;-83
2022/05/27 10:33:24;;;;;;;3.37;0.97;;;22.30;99.90;;;;;;5123795;28;20220;-83
2022/05/27 10:35:52;;;;;;;1.77;0.73;;;22.60;99.90;;;;;;5123897;28;20197;-83
2022/05/27 10:38:43;;;;;;;2.13;0.90;;;23.00;99.90;;;;;;5125283;28;20262;-82
2022/05/27 10:41:24;;;;;;;1.57;0.80;;;23.00;99.90;;;;;;5123464;28;20191;-84
2022/05/27 10:44:01;;;;;;;2.20;1.00;;;23.30;99.90;;;;;;5124689;28;20262;-84
2022/05/27 10:46:36;;;;;;;1.20;0.80;;;23.60;99.90;;;;;;5122726;28;20211;-85
2022/05/27 10:49:07;;;;;;;1.77;0.90;;;23.90;99.90;;;;;;5122933;28;20182;-83
2022/05/27 10:52:10;;;;;;;6.03;1.00;;;23.90;99.90;;;;;;5125029;28;20685;-83
2022/05/27 10:55:08;;;;;;;3.77;1.30;;;24.10;99.90;;;;;;5124137;28;20542;-84
2022/05/27 11:03:46;;;;;;;3.33;0.90;;;24.50;99.90;;;;;;5125799;28;20191;-84
2022/05/27 11:06:24;;;;;;;1.77;1.10;;;24.40;99.90;;;;;;5124396;28;20195;-84
2022/05/27 11:09:06;;;;;;;2.40;1.00;;;24.30;99.90;;;;;;5125417;28;20220;-86
2022/05/27 11:11:54;;;;;;;0.63;0.60;;;24.40;99.70;;;;;;5123841;28;20204;-83
2022/05/27 11:17:23;;;;;;;1.73;0.90;;;24.40;99.90;;;;;;5124302;28;20565;-82
2022/05/27 11:20:08;;;;;;;4.83;1.20;;;24.70;99.90;;;;;;5123022;28;20187;-84
2022/05/27 11:22:51;;;;;;;2.50;0.80;;;25.10;98.90;;;;;;5123938;28;20270;-84
2022/05/27 11:25:39;;;;;;;4.30;1.03;;;25.10;99.90;;;;;;5121919;28;20688;-83
2022/05/27 11:28:20;;;;;;;4.13;0.80;;;25.10;99.90;;;;;;5124459;28;20188;-84
2022/05/27 11:30:45;;;;;;;2.37;0.80;;;25.40;96.00;;;;;;5126514;28;20205;-84
2022/05/27 11:33:20;;;;;;;1.67;1.10;;;25.00;96.20;;;;;;5124357;28;20268;-85
2022/05/27 11:36:13;;;;;;;1.53;0.90;;;25.30;98.60;;;;;;5131909;28;20182;-82
2022/05/27 11:39:03;;;;;;;3.13;0.97;;;25.60;97.60;;;;;;5121858;28;20172;-83
2022/05/27 11:41:38;;;;;;;3.10;1.30;;;24.90;99.90;;;;;;5122543;28;20213;-83
2022/05/27 11:44:23;;;;;;;1.43;0.83;;;24.90;99.30;;;;;;5123544;28;20580;-84
2022/05/27 11:47:20;;;;;;;1.93;0.80;;;24.50;95.40;;;;;;5123526;28;20228;-83
2022/05/27 11:50:23;;;;;;;1.57;0.93;;;23.80;96.60;;;;;;5123314;28;20183;-83
2022/05/27 11:53:03;;;;;;;3.73;1.40;;;23.10;97.30;;;;;;5123817;28;20173;-83
2022/05/27 11:55:40;;;;;;;1.93;0.90;;;25.00;95.40;;;;;;5119307;28;20713;-83
2022/05/27 11:58:15;;;;;;;1.20;0.90;;;25.00;97.70;;;;;;5121288;28;20173;-84
2022/05/27 12:01:09;;;;;;;1.63;0.73;;;26.20;93.20;;;;;;5122862;28;20200;-84
2022/05/27 12:03:45;;;;;;;1.87;0.90;;;;;;;;;;5125058;28;20170;-84
2022/05/27 12:06:16;;;;;;;1.80;0.90;;;26.30;93.10;;;;;;5124041;28;20202;-84
2022/05/27 12:09:00;;;;;;;1.30;0.90;;;26.00;92.20;;;;;;5123395;28;20163;-85
2022/05/27 12:11:44;;;;;;;2.80;1.00;;;25.70;94.50;;;;;;5124854;28;20234;-85
2022/05/27 12:14:23;;;;;;;1.73;1.00;;;25.70;94.70;;;;;;5122483;28;20242;-83
2022/05/27 12:16:50;;;;;;;2.40;1.30;;;27.20;93.20;;;;;;5121343;28;20232;-84
2022/05/27 12:19:26;;;;;;;2.97;1.30;;;27.20;92.90;;;;;;5123357;28;20182;-84
2022/05/27 12:21:59;;;;;;;3.00;0.77;;;27.10;94.10;;;;;;5123595;28;20231;-84
2022/05/27 12:24:45;;;;;;;2.13;1.07;;;25.80;90.30;;;;;;5123851;28;20179;-83
2022/05/27 12:27:14;;;;;;;1.60;0.90;;;25.40;92.20;;;;;;5123753;27;20192;-84
2022/05/27 12:29:42;;;;;;;2.50;0.90;;;25.30;93.60;;;;;;5123661;28;20251;-84
2022/05/27 12:32:10;;;;;;;2.13;1.00;;;25.30;94.10;;;;;;5122749;28;20175;-84
2022/05/27 12:34:40;;;;;;;1.67;1.00;;;26.50;90.90;;;;;;5124200;28;20162;-85
2022/05/27 12:37:12;;;;;;;1.47;1.13;;;26.60;91.90;;;;;;5123245;28;20199;-84
2022/05/27 12:39:38;;;;;;;2.83;1.37;;;;;;;;;;5122915;28;20184;-84
2022/05/27 12:42:18;;;;;;;1.30;0.80;;;27.10;94.70;;;;;;5127797;28;20237;-83
2022/05/27 12:44:45;;;;;;;2.30;1.03;;;;;;;;;;5132712;28;20148;-83
2022/05/27 12:47:19;;;;;;;1.97;1.00;;;25.30;91.10;;;;;;5128062;28;20193;-85
2022/05/27 12:49:48;;;;;;;16.50;1.50;;;25.70;92.90;;;;;;5124101;28;20176;-84
2022/05/27 12:52:29;;;;;;;1.93;0.97;;;26.60;91.20;;;;;;5123739;28;20535;-84
2022/05/27 12:54:58;;;;;;;1.67;0.80;;;;;;;;;;5123964;28;20191;-84
2022/05/27 13:03:33;;;;;;;1.93;1.30;;;27.60;87.10;;;;;;5124242;28;20200;-86
2022/05/27 13:06:12;;;;;;;1.77;0.90;;;26.40;89.60;;;;;;5123577;28;20223;-83
2022/05/27 13:08:53;;;;;;;4.17;0.83;;;26.40;89.70;;;;;;5122541;28;20186;-84
2022/05/27 13:11:21;;;;;;;1.53;0.97;;;26.60;90.20;;;;;;5122540;28;20239;-84
2022/05/27 13:13:48;;;;;;;1.47;0.80;;;;;;;;;;5121815;28;20200;-84
2022/05/27 13:17:01;;;;;;;1.67;0.83;;;27.00;82.50;;;;;;5122525;28;20191;-84
2022/05/27 13:19:33;;;;;;;1.90;0.70;;;26.50;83.60;;;;;;5105641;28;20186;-85
2022/05/27 13:22:03;;;;;;;3.17;0.77;;;26.50;88.70;;;;;;5123974;28;20665;-85
2022/05/27 13:24:30;;;;;;;1.43;0.80;;;;;;;;;;5122957;28;20200;-85
2022/05/27 13:27:26;;;;;;;3.67;0.70;;;26.60;86.40;;;;;;5123639;28;20252;-85
2022/05/27 13:30:01;;;;;;;2.33;0.90;;;26.50;86.20;;;;;;5124047;28;20183;-83
2022/05/27 13:32:33;;;;;;;1.33;0.60;;;26.70;90.50;;;;;;5122960;28;20261;-82
2022/05/27 13:35:02;;;;;;;1.30;0.60;;;27.10;89.00;;;;;;5123272;28;20166;-86
2022/05/27 13:37:54;;;;;;;1.47;0.80;;;27.00;81.90;;;;;;5122811;28;20205;-84
2022/05/27 13:40:28;;;;;;;1.60;0.60;;;27.00;84.20;;;;;;5113056;28;20205;-85
2022/05/27 13:42:56;;;;;;;4.37;0.83;;;26.40;82.30;;;;;;5121614;28;20536;-85
2022/05/27 13:45:21;;;;;;;2.50;0.97;;;26.30;82.30;;;;;;5120534;28;20174;-85
2022/05/27 13:48:06;;;;;;;2.67;0.73;;;26.30;81.00;;;;;;5123461;28;20186;-85
2022/05/27 13:50:32;;;;;;;1.27;0.60;;;;;;;;;;5125050;28;20203;-86
2022/05/27 13:52:58;;;;;;;1.50;0.90;;;;;;;;;;5124224;28;20201;-86
2022/05/27 13:55:27;;;;;;;1.77;0.80;;;26.40;82.50;;;;;;5124971;28;20176;-86
2022/05/27 13:57:56;;;;;;;0.97;0.80;;;26.10;87.60;;;;;;5126905;28;20167;-85
2022/05/27 14:00:24;;;;;;;2.93;1.40;;;26.40;80.60;;;;;;5124791;28;20171;-84
2022/05/27 14:02:51;;;;;;;3.80;0.60;;;26.20;81.30;;;;;;5123200;28;20182;-83
2022/05/27 14:05:26;;;;;;;4.13;1.57;;;26.40;83.90;;;;;;5124946;28;20183;-83
2022/05/27 14:07:55;;;;;;;1.30;0.90;;;26.50;84.00;;;;;;5125439;28;20229;-86